createdAt,value
2019-06-07T00:02:13.273Z,17.10
2019-06-07T00:04:42.311Z,13.20
2019-06-07T00:07:12.053Z,16.57
2019-06-07T00:09:40.147Z,16.60
2019-06-07T00:12:09.557Z,16.37
2019-06-07T00:14:38.103Z,18.27
2019-06-07T00:17:07.793Z,14.90
2019-06-07T00:19:35.926Z,16.70
2019-06-07T00:22:17.609Z,17.97
2019-06-07T00:24:33.810Z,18.37
2019-06-07T00:27:01.861Z,19.70
2019-06-07T00:29:32.398Z,20.27
2019-06-07T00:32:00.460Z,17.23
2019-06-07T00:34:28.506Z,22.47
2019-06-07T00:36:56.570Z,19.80
2019-06-07T00:39:26.045Z,19.73
2019-06-07T00:41:54.415Z,20.40
2019-06-07T00:44:23.420Z,21.67
2019-06-07T00:46:51.718Z,18.60
2019-06-07T00:49:37.741Z,19.60
2019-06-07T00:51:51.748Z,20.10
2019-06-07T00:54:21.774Z,17.83
2019-06-07T00:56:49.160Z,18.60
2019-06-07T00:59:21.075Z,20.17
2019-06-07T01:01:46.992Z,20.90
2019-06-07T01:04:17.742Z,20.40
2019-06-07T01:06:44.883Z,22.77
2019-06-07T01:09:13.099Z,23.47
2019-06-07T01:11:41.183Z,20.33
2019-06-07T01:14:09.254Z,20.87
2019-06-07T01:16:56.230Z,19.33
2019-06-07T01:19:07.070Z,22.63
2019-06-07T01:21:35.134Z,17.40
2019-06-07T01:24:12.058Z,19.27
2019-06-07T01:26:32.958Z,20.67
2019-06-07T01:29:01.091Z,19.20
2019-06-07T01:31:31.517Z,21.53
2019-06-07T01:33:58.924Z,23.10
2019-06-07T01:36:29.549Z,23.13
2019-06-07T01:38:56.842Z,18.60
2019-06-07T01:41:27.842Z,21.00
2019-06-07T01:43:55.086Z,18.87
2019-06-07T01:46:26.623Z,23.77
2019-06-07T01:48:52.931Z,16.60
2019-06-07T01:51:21.931Z,15.37
2019-06-07T01:53:50.206Z,16.97
2019-06-07T01:56:18.944Z,16.03
2019-06-07T01:58:48.103Z,20.03
2019-06-07T02:01:19.161Z,21.27
2019-06-07T02:03:46.018Z,18.57
2019-06-07T02:06:14.066Z,18.97
2019-06-07T02:08:42.118Z,14.10
2019-06-07T02:11:10.223Z,16.37
2019-06-07T02:13:38.270Z,13.83
2019-06-07T02:16:06.510Z,16.33
2019-06-07T02:18:35.149Z,12.60
2019-06-07T02:21:03.275Z,10.10
2019-06-07T02:23:33.612Z,12.33
2019-06-07T02:26:01.098Z,11.00
2019-06-07T02:28:42.176Z,13.20
2019-06-07T02:31:00.580Z,13.67
2019-06-07T02:33:34.168Z,10.40
2019-06-07T02:35:58.678Z,9.77
2019-06-07T02:38:29.751Z,10.37
2019-06-07T02:40:56.486Z,9.07
2019-06-07T02:43:24.922Z,10.40
2019-06-07T02:45:54.390Z,11.03
2019-06-07T02:48:24.513Z,9.93
2019-06-07T02:50:52.209Z,15.80
2019-06-07T02:53:20.277Z,10.50
2019-06-07T02:56:33.806Z,10.07
2019-06-07T02:58:18.089Z,10.63
2019-06-07T03:01:09.319Z,8.40
2019-06-07T03:03:19.521Z,9.87
2019-06-07T03:05:47.664Z,9.33
2019-06-07T03:08:16.547Z,12.93
2019-06-07T03:10:46.166Z,11.20
2019-06-07T03:13:15.778Z,12.13
2019-06-07T03:15:50.223Z,10.13
2019-06-07T03:18:29.095Z,11.60
2019-06-07T03:21:05.178Z,10.17
2019-06-07T03:23:29.897Z,9.13
2019-06-07T03:25:59.922Z,10.17
2019-06-07T03:28:30.171Z,11.17
2019-06-07T03:31:02.673Z,17.93
2019-06-07T03:33:29.483Z,13.50
2019-06-07T03:35:58.301Z,16.43
2019-06-07T03:38:27.620Z,16.37
2019-06-07T03:40:56.123Z,14.20
2019-06-07T03:43:24.203Z,17.87
2019-06-07T03:45:53.055Z,16.13
2019-06-07T03:48:21.113Z,19.93
2019-06-07T03:51:03.866Z,16.33
2019-06-07T03:53:18.967Z,26.47
2019-06-07T03:55:47.064Z,18.70
2019-06-07T03:58:34.676Z,20.07
2019-06-07T04:00:45.674Z,18.53
2019-06-07T04:03:32.894Z,20.50
2019-06-07T04:05:43.792Z,20.43
2019-06-07T04:08:11.927Z,19.40
2019-06-07T04:10:57.048Z,32.30
2019-06-07T04:13:09.759Z,24.63
2019-06-07T04:15:39.584Z,17.93
2019-06-07T04:18:07.586Z,23.97
2019-06-07T04:20:38.110Z,16.80
2019-06-07T04:23:24.969Z,21.57
2019-06-07T04:25:39.461Z,17.27
2019-06-07T04:28:05.590Z,23.30
2019-06-07T04:30:41.887Z,19.23
2019-06-07T04:33:10.923Z,19.83
2019-06-07T04:35:42.869Z,19.33
2019-06-07T04:38:10.546Z,28.57
2019-06-07T04:40:39.955Z,17.67
2019-06-07T04:43:08.562Z,18.10
2019-06-07T04:45:46.645Z,16.13
2019-06-07T04:48:08.946Z,13.77
2019-06-07T04:50:39.991Z,12.53
2019-06-07T04:53:07.387Z,12.37
2019-06-07T04:55:38.610Z,14.00
2019-06-07T04:58:05.658Z,12.70
2019-06-07T05:00:49.832Z,13.40
2019-06-07T05:03:05.442Z,13.07
2019-06-07T05:05:34.583Z,10.87
2019-06-07T05:08:07.614Z,9.37
2019-06-07T05:10:35.124Z,8.70
2019-06-07T05:13:03.303Z,10.70
2019-06-07T05:15:32.071Z,10.50
2019-06-07T05:18:00.167Z,11.87
2019-06-07T05:20:28.217Z,11.03
2019-06-07T05:22:56.266Z,11.57
2019-06-07T05:25:24.383Z,17.80
2019-06-07T05:27:52.406Z,12.03
2019-06-07T05:30:59.794Z,11.67
2019-06-07T05:32:57.811Z,15.63
2019-06-07T05:35:26.038Z,12.43
2019-06-07T05:37:54.168Z,13.30
2019-06-07T05:40:23.763Z,10.13
2019-06-07T05:42:51.827Z,8.77
2019-06-07T05:45:21.438Z,11.57
2019-06-07T05:47:50.947Z,8.00
2019-06-07T05:50:39.042Z,8.83
2019-06-07T05:52:49.142Z,7.20
2019-06-07T05:55:17.195Z,6.83
2019-06-07T05:57:48.726Z,10.37
2019-06-07T06:00:15.094Z,5.73
2019-06-07T06:03:03.317Z,6.17
2019-06-07T06:05:32.524Z,6.80
2019-06-07T06:07:47.336Z,5.37
2019-06-07T06:10:12.504Z,5.70
2019-06-07T06:12:44.856Z,6.73
2019-06-07T06:15:10.608Z,7.77
2019-06-07T06:17:42.774Z,7.10
2019-06-07T06:20:08.577Z,8.40
2019-06-07T06:22:37.357Z,6.67
2019-06-07T06:30:10.571Z,7.83
2019-06-07T06:32:46.448Z,8.30
2019-06-07T06:35:09.115Z,8.30
2019-06-07T06:37:40.349Z,9.37
2019-06-07T06:40:07.186Z,8.13
2019-06-07T06:42:35.369Z,6.47
2019-06-07T06:45:05.038Z,8.43
2019-06-07T06:47:33.146Z,6.60
2019-06-07T06:50:02.430Z,7.20
2019-06-07T06:52:30.926Z,12.53
2019-06-07T06:55:00.760Z,10.73
2019-06-07T06:57:28.750Z,10.97
2019-06-07T06:59:56.855Z,10.67
2019-06-07T07:02:24.907Z,14.63
2019-06-07T07:04:54.023Z,12.67
2019-06-07T07:07:22.662Z,10.40
2019-06-07T07:09:57.311Z,9.73
2019-06-07T07:12:20.699Z,8.83
2019-06-07T07:14:50.282Z,9.33
2019-06-07T07:17:18.626Z,8.07
2019-06-07T07:19:49.780Z,12.23
2019-06-07T07:22:16.482Z,6.70
2019-06-07T07:24:46.991Z,8.37
2019-06-07T07:27:15.271Z,10.50
2019-06-07T07:29:47.851Z,8.93
2019-06-07T07:32:15.555Z,8.50
2019-06-07T07:34:46.205Z,7.73
2019-06-07T07:37:13.869Z,7.97
2019-06-07T07:39:41.910Z,7.53
2019-06-07T07:42:20.849Z,7.90
2019-06-07T07:44:39.751Z,8.77
2019-06-07T07:47:07.790Z,8.33
2019-06-07T07:49:35.847Z,6.23
2019-06-07T07:52:04.078Z,8.13
2019-06-07T07:54:32.586Z,7.00
2019-06-07T07:57:00.675Z,5.20
2019-06-07T07:59:41.767Z,6.70
2019-06-07T08:01:58.751Z,5.50
2019-06-07T08:05:12.348Z,8.70
2019-06-07T08:06:56.590Z,8.10
2019-06-07T08:09:24.624Z,8.80
2019-06-07T08:11:59.603Z,5.30
2019-06-07T08:14:22.462Z,6.40
2019-06-07T08:16:51.894Z,7.13
2019-06-07T08:19:20.058Z,6.97
2019-06-07T08:21:49.012Z,5.20
2019-06-07T08:24:17.148Z,8.10
2019-06-07T08:27:09.429Z,4.87
2019-06-07T08:29:14.947Z,6.77
2019-06-07T08:31:42.990Z,6.00
2019-06-07T08:34:11.047Z,5.90
2019-06-07T08:36:42.457Z,7.40
2019-06-07T08:39:08.870Z,5.93
2019-06-07T08:41:37.040Z,5.87
2019-06-07T08:44:22.718Z,4.27
2019-06-07T08:46:34.886Z,4.30
2019-06-07T08:49:04.822Z,6.30
2019-06-07T08:51:32.731Z,6.43
2019-06-07T08:54:20.979Z,5.13
2019-06-07T08:56:31.731Z,7.43
2019-06-07T08:59:10.063Z,6.77
2019-06-07T09:01:30.748Z,4.67
2019-06-07T09:04:02.827Z,6.90
2019-06-07T09:07:01.931Z,4.00
2019-06-07T09:09:01.570Z,5.87
2019-06-07T09:11:28.231Z,7.63
2019-06-07T09:13:57.730Z,5.73
2019-06-07T09:16:26.028Z,4.47
2019-06-07T09:18:56.999Z,6.23
2019-06-07T09:21:23.910Z,4.17
2019-06-07T09:23:51.958Z,5.00
2019-06-07T09:26:20.039Z,4.77
2019-06-07T09:28:48.083Z,5.87
2019-06-07T09:31:16.122Z,6.63
2019-06-07T09:33:44.186Z,4.97
2019-06-07T09:36:13.363Z,4.33
2019-06-07T09:38:43.876Z,4.87
2019-06-07T09:41:11.950Z,3.87
2019-06-07T09:44:01.991Z,7.50
2019-06-07T09:46:14.748Z,4.00
2019-06-07T09:51:19.478Z,6.00
2019-06-07T09:53:39.566Z,4.47
2019-06-07T09:56:11.364Z,8.37
2019-06-07T09:58:54.453Z,4.23
2019-06-07T10:01:13.758Z,3.37
2019-06-07T10:03:40.988Z,4.30
2019-06-07T10:06:13.205Z,2.67
2019-06-07T10:09:57.106Z,3.77
2019-06-07T10:11:10.218Z,5.33
2019-06-07T10:13:38.259Z,3.03
2019-06-07T10:16:07.108Z,3.37
2019-06-07T10:18:35.243Z,2.77
2019-06-07T10:21:05.685Z,3.27
2019-06-07T10:23:33.902Z,3.53
2019-06-07T10:26:02.004Z,3.67
2019-06-07T10:28:30.995Z,3.83
2019-06-07T10:31:00.085Z,3.97
2019-06-07T10:33:28.182Z,2.70
2019-06-07T10:35:56.219Z,5.33
2019-06-07T10:38:24.261Z,5.10
2019-06-07T10:40:52.322Z,3.00
2019-06-07T10:43:20.364Z,3.10
2019-06-07T10:45:48.861Z,3.03
2019-06-07T10:48:16.938Z,2.43
2019-06-07T10:50:44.987Z,3.67
2019-06-07T10:53:13.026Z,4.47
2019-06-07T10:55:41.090Z,5.53
2019-06-07T10:58:09.244Z,3.53
2019-06-07T11:00:38.634Z,4.57
2019-06-07T11:03:07.993Z,3.63
2019-06-07T11:05:36.088Z,3.03
2019-06-07T11:08:04.165Z,5.23
2019-06-07T11:10:32.263Z,4.67
2019-06-07T11:13:00.326Z,3.57
2019-06-07T11:15:28.342Z,5.37
2019-06-07T11:17:56.432Z,3.37
2019-06-07T11:20:24.466Z,3.83
2019-06-07T11:22:52.773Z,3.97
2019-06-07T11:25:20.826Z,3.80
2019-06-07T11:27:48.875Z,2.80
2019-06-07T11:30:17.081Z,2.83
2019-06-07T11:32:46.113Z,4.03
2019-06-07T11:35:15.526Z,4.07
2019-06-07T11:37:43.645Z,4.90
2019-06-07T11:40:35.104Z,2.57
2019-06-07T11:42:42.079Z,3.90
2019-06-07T11:45:10.798Z,3.93
2019-06-07T11:47:40.066Z,4.33
2019-06-07T11:50:09.296Z,5.07
2019-06-07T11:52:38.227Z,3.17
2019-06-07T11:55:09.019Z,2.90
2019-06-07T11:57:37.413Z,3.00
2019-06-07T12:00:09.275Z,2.57
2019-06-07T12:02:38.862Z,3.10
2019-06-07T12:05:07.459Z,4.20
2019-06-07T12:07:35.502Z,3.10
2019-06-07T12:10:05.130Z,3.47
2019-06-07T12:12:33.174Z,3.47
2019-06-07T12:15:01.761Z,3.33
2019-06-07T12:17:29.933Z,3.03
2019-06-07T12:19:57.970Z,3.43
2019-06-07T12:22:26.031Z,4.63
2019-06-07T12:24:54.143Z,2.90
2019-06-07T12:27:22.242Z,4.33
2019-06-07T12:29:50.360Z,3.13
2019-06-07T12:32:19.554Z,5.00
2019-06-07T12:34:47.659Z,2.90
2019-06-07T12:37:19.336Z,3.53
2019-06-07T12:39:45.503Z,3.27
2019-06-07T12:42:14.935Z,2.83
2019-06-07T12:44:43.079Z,2.20
2019-06-07T12:47:11.155Z,2.63
2019-06-07T12:49:39.245Z,2.97
2019-06-07T12:52:07.296Z,8.53
2019-06-07T12:54:35.337Z,3.77
2019-06-07T12:57:03.393Z,3.10
2019-06-07T12:59:31.991Z,3.37
2019-06-07T13:02:02.492Z,4.57
2019-06-07T13:04:29.825Z,3.67
2019-06-07T13:06:57.895Z,2.47
2019-06-07T13:09:25.935Z,2.80
2019-06-07T13:11:54.030Z,3.57
2019-06-07T13:14:22.148Z,2.77
2019-06-07T13:16:50.226Z,4.03
2019-06-07T13:19:18.273Z,3.43
2019-06-07T13:21:46.432Z,4.13
2019-06-07T13:24:14.477Z,3.47
2019-06-07T13:26:42.514Z,3.70
2019-06-07T13:29:10.782Z,5.93
2019-06-07T13:31:38.858Z,4.57
2019-06-07T13:34:06.926Z,2.77
2019-06-07T13:36:34.994Z,3.20
2019-06-07T13:39:04.578Z,2.97
2019-06-07T13:41:42.403Z,3.63
2019-06-07T13:44:02.447Z,2.77
2019-06-07T13:46:30.483Z,3.20
2019-06-07T13:48:58.526Z,2.90
2019-06-07T13:51:27.999Z,2.77
2019-06-07T13:53:56.350Z,5.13
2019-06-07T13:56:24.387Z,4.67
2019-06-07T13:58:52.450Z,2.70
2019-06-07T14:01:27.190Z,5.17
2019-06-07T14:03:55.642Z,5.97
2019-06-07T14:06:25.222Z,2.67
2019-06-07T14:08:53.425Z,4.07
2019-06-07T14:11:21.510Z,2.83
2019-06-07T14:13:49.518Z,3.40
2019-06-07T14:16:17.563Z,5.23
2019-06-07T14:18:45.618Z,2.70
2019-06-07T14:21:13.665Z,5.43
2019-06-07T14:23:48.765Z,4.07
2019-06-07T14:26:11.542Z,4.53
2019-06-07T14:28:39.583Z,3.27
2019-06-07T14:31:07.634Z,2.73
2019-06-07T14:33:35.698Z,3.70
2019-06-07T14:36:03.874Z,2.97
2019-06-07T14:38:35.459Z,3.53
2019-06-07T14:41:01.763Z,4.53
2019-06-07T14:43:29.911Z,3.97
2019-06-07T14:45:57.969Z,2.90
2019-06-07T14:48:26.042Z,4.57
2019-06-07T14:50:54.146Z,3.43
2019-06-07T14:53:22.187Z,3.50
2019-06-07T14:55:50.309Z,2.97
2019-06-07T14:58:18.363Z,5.40
2019-06-07T15:00:46.435Z,3.50
2019-06-07T15:03:14.484Z,3.50
2019-06-07T15:05:42.538Z,3.10
2019-06-07T15:08:12.170Z,2.97
2019-06-07T15:10:40.234Z,3.60
2019-06-07T15:13:08.343Z,2.87
2019-06-07T15:15:36.390Z,4.73
2019-06-07T15:18:04.600Z,2.57
2019-06-07T15:20:33.941Z,4.13
2019-06-07T15:23:02.953Z,2.90
2019-06-07T15:25:31.217Z,3.47
2019-06-07T15:27:59.251Z,2.70
2019-06-07T15:30:27.446Z,3.93
2019-06-07T15:32:59.429Z,2.77
2019-06-07T15:35:25.330Z,2.97
2019-06-07T15:37:53.376Z,2.87
2019-06-07T15:40:21.502Z,3.60
2019-06-07T15:42:52.730Z,5.60
2019-06-07T15:45:19.478Z,3.43
2019-06-07T15:47:47.552Z,4.80
2019-06-07T15:50:15.662Z,2.90
2019-06-07T15:52:43.692Z,4.23
2019-06-07T15:55:12.103Z,2.87
2019-06-07T15:57:41.859Z,6.20
2019-06-07T16:00:17.097Z,3.50
2019-06-07T16:02:45.135Z,4.53
2019-06-07T16:05:13.442Z,3.00
2019-06-07T16:07:43.027Z,3.17
2019-06-07T16:10:14.027Z,2.83
2019-06-07T16:12:58.640Z,4.90
2019-06-07T16:15:12.824Z,2.80
2019-06-07T16:17:42.015Z,3.87
2019-06-07T16:20:10.793Z,2.60
2019-06-07T16:22:39.744Z,3.40
2019-06-07T16:25:08.031Z,2.63
2019-06-07T16:27:36.811Z,3.60
2019-06-07T16:30:09.297Z,3.10
2019-06-07T16:32:37.420Z,3.57
2019-06-07T16:35:05.869Z,3.17
2019-06-07T16:37:36.172Z,2.67
2019-06-07T16:40:07.576Z,2.57
2019-06-07T16:42:36.296Z,7.23
2019-06-07T16:45:05.526Z,12.07
2019-06-07T16:47:36.867Z,5.23
2019-06-07T16:50:05.012Z,9.07
2019-06-07T16:52:33.070Z,4.73
2019-06-07T16:55:01.104Z,4.97
2019-06-07T16:57:29.150Z,4.10
2019-06-07T16:59:57.219Z,5.27
2019-06-07T17:02:25.262Z,6.90
2019-06-07T17:04:53.307Z,4.33
2019-06-07T17:07:21.418Z,3.10
2019-06-07T17:09:49.567Z,2.83
2019-06-07T17:12:18.285Z,3.97
2019-06-07T17:14:46.654Z,3.13
2019-06-07T17:17:14.740Z,3.43
2019-06-07T17:19:42.917Z,5.80
2019-06-07T17:22:11.038Z,3.33
2019-06-07T17:24:39.291Z,2.60
2019-06-07T17:27:07.296Z,2.93
2019-06-07T17:29:39.787Z,2.80
2019-06-07T17:32:07.913Z,3.37
2019-06-07T17:34:35.942Z,3.93
2019-06-07T17:37:04.092Z,5.83
2019-06-07T17:39:32.141Z,5.00
2019-06-07T17:42:02.411Z,3.17
2019-06-07T17:44:30.440Z,2.53
2019-06-07T17:46:58.489Z,1.67
2019-06-07T17:49:26.530Z,3.07
2019-06-07T17:51:54.657Z,4.33
2019-06-07T17:54:22.944Z,2.67
2019-06-07T17:56:50.967Z,2.40
2019-06-07T17:59:19.030Z,1.40
2019-06-07T18:02:11.159Z,4.00
2019-06-07T18:04:18.341Z,4.07
2019-06-07T18:06:47.317Z,3.03
2019-06-07T18:09:15.446Z,2.63
2019-06-07T18:11:43.954Z,2.20
2019-06-07T18:14:13.335Z,3.23
2019-06-07T18:16:41.366Z,3.00
2019-06-07T18:19:09.466Z,2.80
2019-06-07T18:21:37.522Z,1.70
2019-06-07T18:24:05.592Z,3.03
2019-06-07T18:26:33.660Z,1.03
2019-06-07T18:29:01.731Z,0.90
2019-06-07T18:31:29.787Z,5.60
2019-06-07T18:33:58.986Z,1.20
2019-06-07T18:36:27.270Z,2.40
2019-06-07T18:38:55.307Z,1.70
2019-06-07T18:41:23.343Z,0.80
2019-06-07T18:43:53.136Z,2.53
2019-06-07T18:46:21.186Z,1.07
2019-06-07T18:48:50.503Z,1.87
2019-06-07T18:51:19.146Z,4.17
2019-06-07T18:53:47.545Z,1.87
2019-06-07T18:56:15.680Z,1.90
2019-06-07T18:58:43.731Z,1.17
2019-06-07T19:01:11.892Z,0.37
2019-06-07T19:03:39.954Z,0.57
2019-06-07T19:06:08.019Z,2.93
2019-06-07T19:08:36.066Z,0.97
2019-06-07T19:11:04.119Z,4.67
2019-06-07T19:13:33.154Z,1.73
2019-06-07T19:16:02.442Z,1.40
2019-06-07T19:18:30.486Z,3.53
2019-06-07T19:20:58.585Z,0.80
2019-06-07T19:23:26.662Z,2.30
2019-06-07T19:25:54.699Z,0.83
2019-06-07T19:28:22.760Z,2.47
2019-06-07T19:30:50.879Z,1.33
2019-06-07T19:33:18.920Z,1.07
2019-06-07T19:35:46.994Z,0.83
2019-06-07T19:38:16.963Z,0.57
2019-06-07T19:40:44.973Z,0.70
2019-06-07T19:43:13.055Z,1.83
2019-06-07T19:45:41.087Z,1.70
2019-06-07T19:48:09.197Z,0.77
2019-06-07T19:50:37.382Z,0.40
2019-06-07T19:53:05.423Z,0.50
2019-06-07T19:55:33.475Z,2.00
2019-06-07T19:58:01.896Z,1.87
2019-06-07T20:00:29.924Z,0.93
2019-06-07T20:02:57.966Z,1.43
2019-06-07T20:05:26.022Z,1.07
2019-06-07T20:07:54.431Z,0.70
2019-06-07T20:10:22.602Z,0.73
2019-06-07T20:12:50.662Z,0.60
2019-06-07T20:15:28.606Z,2.70
2019-06-07T20:17:49.958Z,0.67
2019-06-07T20:20:18.131Z,1.47
2019-06-07T20:22:46.170Z,2.80
2019-06-07T20:25:14.370Z,4.07
2019-06-07T20:27:42.439Z,0.80
2019-06-07T20:30:11.249Z,4.53
2019-06-07T20:32:39.282Z,3.60
2019-06-07T20:35:08.204Z,1.20
2019-06-07T20:37:36.530Z,1.60
2019-06-07T20:40:22.351Z,1.00
2019-06-07T20:42:38.106Z,1.47
2019-06-07T20:45:07.986Z,1.90
2019-06-07T20:47:36.243Z,3.33
2019-06-07T20:50:08.469Z,1.83
2019-06-07T20:52:36.918Z,1.50
2019-06-07T20:55:06.929Z,4.00
2019-06-07T20:57:35.294Z,4.60
2019-06-07T21:00:12.224Z,3.20
2019-06-07T21:02:34.790Z,3.13
2019-06-07T21:05:03.412Z,2.60
2019-06-07T21:07:31.554Z,4.70
2019-06-07T21:09:59.596Z,1.77
2019-06-07T21:12:27.650Z,1.57
2019-06-07T21:14:55.694Z,2.50
2019-06-07T21:17:23.737Z,2.27
2019-06-07T21:19:53.063Z,1.40
2019-06-07T21:22:21.102Z,1.63
2019-06-07T21:24:50.882Z,2.20
2019-06-07T21:27:19.411Z,3.43
2019-06-07T21:29:48.213Z,1.20
2019-06-07T21:32:16.259Z,2.70
2019-06-07T21:34:44.326Z,4.93
2019-06-07T21:37:12.363Z,1.90
2019-06-07T21:39:40.407Z,3.83
2019-06-07T21:42:08.467Z,3.43
2019-06-07T21:44:36.510Z,3.63
2019-06-07T21:47:04.567Z,3.67
2019-06-07T21:49:33.130Z,1.80
2019-06-07T21:52:02.468Z,1.77
2019-06-07T21:54:30.650Z,1.53
2019-06-07T21:56:58.719Z,2.87
2019-06-07T21:59:26.753Z,2.00
2019-06-07T22:01:56.784Z,3.90
2019-06-07T22:04:24.864Z,2.77
2019-06-07T22:06:52.902Z,2.17
2019-06-07T22:09:20.943Z,3.63
2019-06-07T22:11:49.068Z,3.17
2019-06-07T22:14:17.118Z,2.07
2019-06-07T22:16:45.159Z,1.20
2019-06-07T22:19:14.802Z,2.30
2019-06-07T22:21:43.455Z,0.80
2019-06-07T22:24:11.490Z,0.80
2019-06-07T22:26:39.554Z,4.57
2019-06-07T22:29:08.264Z,3.23
2019-06-07T22:31:36.426Z,0.90
2019-06-07T22:34:07.084Z,1.20
2019-06-07T22:36:35.128Z,1.60
2019-06-07T22:39:03.712Z,0.60
2019-06-07T22:41:31.798Z,1.83
2019-06-07T22:43:59.850Z,2.13
2019-06-07T22:46:36.867Z,1.40
2019-06-07T22:48:57.671Z,1.87
2019-06-07T22:51:25.710Z,3.57
2019-06-07T22:53:53.755Z,2.03
2019-06-07T22:56:23.507Z,1.60
2019-06-07T22:58:51.546Z,1.13
2019-06-07T23:01:20.533Z,1.40
2019-06-07T23:03:48.609Z,1.97
2019-06-07T23:06:16.829Z,1.53
2019-06-07T23:08:44.854Z,0.80
2019-06-07T23:11:13.316Z,2.13
2019-06-07T23:13:41.439Z,1.83
2019-06-07T23:16:09.478Z,3.87
2019-06-07T23:18:37.584Z,1.57
2019-06-07T23:21:05.626Z,1.30
2019-06-07T23:23:34.379Z,0.80
2019-06-07T23:26:02.455Z,1.23
2019-06-07T23:28:30.494Z,1.10
2019-06-07T23:30:58.542Z,2.70
2019-06-07T23:33:26.612Z,2.17
2019-06-07T23:35:54.659Z,2.00
2019-06-07T23:38:22.698Z,1.90
2019-06-07T23:40:50.810Z,1.67
2019-06-07T23:43:19.626Z,1.87
2019-06-07T23:45:47.671Z,2.20
2019-06-07T23:48:15.743Z,2.47
2019-06-07T23:50:43.784Z,1.33
2019-06-07T23:53:11.821Z,3.87
2019-06-07T23:55:39.888Z,3.30
2019-06-07T23:58:07.934Z,4.90
